Terminal Aerodrome Forecast
Issued by NWS St Louis, MO

Home | Current Version | Previous Version | Text Only | Print | Product List | Glossary On
Versions: 1 2 3 4 5 6 7 8 9 10 11 12 13 14 15 16 17 18
000
FTUS43 KLSX 271700
TAFCOU
TAF
KCOU 271720Z 2718/2818 30006KT P6SM SCT020 BKN070
     FM272300 VRB04KT P6SM BKN070
     FM281100 16009KT P6SM SCT080=

USA.gov is the U.S. government's official web portal to all federal, state and local government web resources and services.